Time;durP1;ratioP1;P1;durP2;ratioP2;P2;SDS_P1;SDS_P2;PMS_P1;PMS_P2;Temp;Humidity;BMP_temperature;BMP_pressure;BME280_temperature;BME280_humidity;BME280_pressure;Samples;Min_cycle;Max_cycle;Signal;HPM_P1;HPM_P2
2024/01/05 00:02:10;;;;;;;20.58;11.70;;;;;;;;;;5031050;28;20576;-77
2024/01/05 00:04:36;;;;;;;19.05;11.45;;;;;;;;;;5033594;28;20135;-78
2024/01/05 00:07:03;;;;;;;21.95;11.70;;;;;;;;;;5049332;28;20124;-77
2024/01/05 00:09:29;;;;;;;24.88;12.98;;;;;;;;;;5028506;28;20072;-78
2024/01/05 00:11:54;;;;;;;22.25;11.95;;;;;;;;;;5021160;28;20048;-77
2024/01/05 00:14:21;;;;;;;26.13;14.07;;;;;;;;;;5028042;28;20477;-77
2024/01/05 00:16:47;;;;;;;21.67;12.00;;;;;;;;;;5030675;28;20063;-78
2024/01/05 00:19:13;;;;;;;21.90;12.75;;;;;;;;;;5043442;28;20120;-78
2024/01/05 00:21:39;;;;;;;22.83;12.98;;;;;;;;;;5027292;28;20402;-78
2024/01/05 00:24:05;;;;;;;21.15;13.40;;;;;;;;;;5030177;28;20049;-78
2024/01/05 00:26:31;;;;;;;21.80;13.80;;;;;;;;;;5031796;28;20050;-78
2024/01/05 00:28:58;;;;;;;25.58;14.35;;;;;;;;;;5027163;28;20088;-77
2024/01/05 00:31:24;;;;;;;28.52;14.10;;;;;;;;;;5042631;28;20076;-78
2024/01/05 00:33:50;;;;;;;29.27;14.00;;;;;;;;;;5031559;28;20104;-78
2024/01/05 00:36:16;;;;;;;26.58;13.93;;;;;;;;;;5030853;28;20055;-78
2024/01/05 00:38:47;;;;;;;30.75;16.48;;;;;;;;;;5025069;28;20049;-78
2024/01/05 00:41:13;;;;;;;25.40;14.13;;;;;;;;;;5025969;28;20060;-78
2024/01/05 00:43:39;;;;;;;25.65;13.93;;;;;;;;;;5031126;28;20087;-78
2024/01/05 00:46:05;;;;;;;22.73;14.52;;;;;;;;;;5041903;28;20080;-78
2024/01/05 00:48:31;;;;;;;24.20;14.55;;;;;;;;;;5032114;28;20139;-78
2024/01/05 00:50:57;;;;;;;29.50;14.85;;;;;;;;;;5028531;28;20049;-78
2024/01/05 00:53:23;;;;;;;22.98;14.95;;;;;;;;;;5018782;28;20095;-78
2024/01/05 00:55:49;;;;;;;27.92;16.05;;;;;;;;;;5040210;28;20057;-78
2024/01/05 00:58:15;;;;;;;21.52;14.00;;;;;;;;;;5054117;28;20908;-78
2024/01/05 01:00:41;;;;;;;28.48;16.73;;;;;;;;;;5034437;28;20080;-78
2024/01/05 01:03:07;;;;;;;24.70;15.95;;;;;;;;;;5032572;28;20045;-78
2024/01/05 01:05:33;;;;;;;27.98;17.35;;;;;;;;;;5024794;28;20562;-78
2024/01/05 01:08:00;;;;;;;26.77;16.35;;;;;;;;;;5037000;28;20534;-78
2024/01/05 01:10:26;;;;;;;25.95;16.40;;;;;;;;;;5049387;28;20040;-78
2024/01/05 01:12:52;;;;;;;22.23;15.40;;;;;;;;;;5042617;28;20400;-78
2024/01/05 01:15:18;;;;;;;25.60;15.95;;;;;;;;;;5059947;28;20040;-78
2024/01/05 01:17:44;;;;;;;26.67;16.02;;;;;;;;;;5035891;28;20056;-78
2024/01/05 01:20:10;;;;;;;29.00;16.40;;;;;;;;;;5017160;28;20382;-78
2024/01/05 01:22:36;;;;;;;26.30;16.17;;;;;;;;;;5030593;28;20057;-78
2024/01/05 01:25:02;;;;;;;29.33;17.17;;;;;;;;;;5039431;28;20513;-78
2024/01/05 01:27:29;;;;;;;29.80;17.73;;;;;;;;;;5030037;28;20045;-78
2024/01/05 01:29:55;;;;;;;29.48;17.10;;;;;;;;;;5051268;28;20401;-78
2024/01/05 01:32:21;;;;;;;26.08;17.33;;;;;;;;;;5051879;28;20041;-78
2024/01/05 01:34:47;;;;;;;30.98;16.60;;;;;;;;;;5027201;28;20053;-77
2024/01/05 01:37:13;;;;;;;23.52;16.98;;;;;;;;;;5014179;28;20038;-78
2024/01/05 01:39:39;;;;;;;32.47;18.10;;;;;;;;;;5038409;28;20053;-78
2024/01/05 01:42:05;;;;;;;27.45;17.60;;;;;;;;;;5046808;28;20057;-78
2024/01/05 01:44:31;;;;;;;29.65;17.77;;;;;;;;;;5037050;28;20473;-78
2024/01/05 01:46:58;;;;;;;26.55;17.85;;;;;;;;;;5046010;28;20076;-78
2024/01/05 01:49:25;;;;;;;27.08;18.27;;;;;;;;;;5034963;28;20121;-78
2024/01/05 01:51:51;;;;;;;27.15;17.38;;;;;;;;;;5021846;28;20048;-78
2024/01/05 01:54:17;;;;;;;25.52;16.45;;;;;;;;;;5039161;28;20040;-78
2024/01/05 01:56:45;;;;;;;27.75;18.40;;;;;;;;;;5028882;28;20056;-78
2024/01/05 01:59:11;;;;;;;32.63;19.20;;;;;;;;;;5055771;28;20040;-78
2024/01/05 02:01:37;;;;;;;30.70;18.13;;;;;;;;;;5044859;28;20056;-78
2024/01/05 02:04:04;;;;;;;27.92;18.80;;;;;;;;;;5032834;28;20150;-78
2024/01/05 02:06:30;;;;;;;29.00;18.42;;;;;;;;;;5037453;28;20567;-77
2024/01/05 02:08:56;;;;;;;29.10;17.92;;;;;;;;;;5021534;28;20132;-78
2024/01/05 02:11:22;;;;;;;26.67;17.25;;;;;;;;;;5035307;28;20045;-78
2024/01/05 02:13:48;;;;;;;28.85;18.25;;;;;;;;;;5035652;28;20507;-78
2024/01/05 02:16:14;;;;;;;28.63;18.13;;;;;;;;;;5042821;28;20110;-78
2024/01/05 02:18:40;;;;;;;26.88;16.02;;;;;;;;;;5035974;28;20049;-78
2024/01/05 02:21:07;;;;;;;27.92;17.92;;;;;;;;;;5032789;28;20057;-78
2024/01/05 02:23:33;;;;;;;27.63;16.02;;;;;;;;;;5033239;28;20049;-78
2024/01/05 02:26:00;;;;;;;26.42;17.42;;;;;;;;;;5034656;28;20118;-78
2024/01/05 02:28:26;;;;;;;27.40;17.75;;;;;;;;;;5031560;28;20056;-78
2024/01/05 02:30:56;;;;;;;34.72;19.15;;;;;;;;;;5052099;28;20052;-78
2024/01/05 02:33:22;;;;;;;28.75;17.65;;;;;;;;;;5038285;28;20041;-78
2024/01/05 02:35:48;;;;;;;30.95;20.02;;;;;;;;;;5033436;28;20135;-78
2024/01/05 02:38:14;;;;;;;26.13;17.50;;;;;;;;;;5029595;28;20044;-78
2024/01/05 02:40:40;;;;;;;27.33;18.00;;;;;;;;;;5032468;28;20144;-78
2024/01/05 02:43:06;;;;;;;31.55;18.52;;;;;;;;;;5035398;28;20041;-78
2024/01/05 02:45:33;;;;;;;31.30;18.35;;;;;;;;;;5031864;28;20485;-78
2024/01/05 02:47:59;;;;;;;26.05;17.10;;;;;;;;;;5037853;28;20048;-78
2024/01/05 02:50:25;;;;;;;29.27;17.70;;;;;;;;;;5063086;28;20045;-78
2024/01/05 02:52:51;;;;;;;30.27;20.05;;;;;;;;;;5038717;28;20523;-78
2024/01/05 02:55:17;;;;;;;29.85;18.02;;;;;;;;;;5030710;28;20041;-78
2024/01/05 02:57:43;;;;;;;26.85;17.80;;;;;;;;;;5030622;28;20044;-78
2024/01/05 03:00:09;;;;;;;28.02;17.67;;;;;;;;;;5031879;28;20094;-78
2024/01/05 03:02:35;;;;;;;30.50;18.73;;;;;;;;;;5058568;28;20060;-78
2024/01/05 03:05:01;;;;;;;32.45;19.85;;;;;;;;;;5037338;28;20128;-78
2024/01/05 03:07:27;;;;;;;29.52;18.42;;;;;;;;;;5049990;28;20041;-78
2024/01/05 03:09:53;;;;;;;29.55;18.40;;;;;;;;;;5045520;28;20128;-78
2024/01/05 03:12:19;;;;;;;32.85;19.77;;;;;;;;;;5034173;28;20132;-78
2024/01/05 03:14:45;;;;;;;31.90;19.15;;;;;;;;;;5048397;28;20115;-78
2024/01/05 03:17:11;;;;;;;31.42;19.50;;;;;;;;;;5037482;28;20577;-78
2024/01/05 03:19:37;;;;;;;29.27;18.67;;;;;;;;;;5034331;28;20127;-78
2024/01/05 03:22:04;;;;;;;30.25;18.48;;;;;;;;;;5028364;28;20106;-78
2024/01/05 03:24:30;;;;;;;25.58;16.90;;;;;;;;;;5030473;28;20048;-78
2024/01/05 03:26:56;;;;;;;27.60;17.92;;;;;;;;;;5034986;28;20045;-78
2024/01/05 03:29:22;;;;;;;26.80;18.45;;;;;;;;;;5029911;28;20041;-78
2024/01/05 03:31:48;;;;;;;27.52;17.48;;;;;;;;;;5034984;28;20152;-78
2024/01/05 03:34:14;;;;;;;30.17;17.50;;;;;;;;;;5034437;28;20045;-78
2024/01/05 03:36:41;;;;;;;25.65;15.50;;;;;;;;;;5048175;28;20088;-78
2024/01/05 03:39:10;;;;;;;24.30;15.85;;;;;;;;;;5022801;28;20448;-78
2024/01/05 03:41:36;;;;;;;27.40;16.60;;;;;;;;;;5028144;28;20041;-78
2024/01/05 03:44:04;;;;;;;24.38;15.48;;;;;;;;;;5050061;28;20080;-78
2024/01/05 03:46:30;;;;;;;31.33;17.13;;;;;;;;;;5040342;28;20053;-78
2024/01/05 03:48:56;;;;;;;26.17;16.77;;;;;;;;;;5053602;28;20040;-78
2024/01/05 03:51:22;;;;;;;25.85;15.20;;;;;;;;;;5039934;28;20482;-78
2024/01/05 03:53:48;;;;;;;26.88;16.15;;;;;;;;;;5033497;28;20094;-78
2024/01/05 03:56:14;;;;;;;28.27;17.65;;;;;;;;;;5032645;28;20123;-78
2024/01/05 03:58:40;;;;;;;32.30;17.55;;;;;;;;;;5047391;28;20056;-78
2024/01/05 04:01:06;;;;;;;27.17;17.17;;;;;;;;;;5050207;28;20032;-78
2024/01/05 04:03:32;;;;;;;31.65;19.15;;;;;;;;;;5033208;28;20063;-78
2024/01/05 04:05:58;;;;;;;28.27;16.30;;;;;;;;;;5042126;28;20053;-78
2024/01/05 04:08:24;;;;;;;27.08;15.80;;;;;;;;;;5033465;28;20041;-78
2024/01/05 04:10:51;;;;;;;28.50;17.15;;;;;;;;;;5029302;28;20559;-78
2024/01/05 04:13:17;;;;;;;23.30;14.27;;;;;;;;;;5034830;28;20397;-78
2024/01/05 04:15:43;;;;;;;29.40;17.85;;;;;;;;;;5056417;28;20037;-78
2024/01/05 04:18:09;;;;;;;26.45;15.57;;;;;;;;;;5038472;28;20056;-78
2024/01/05 04:20:35;;;;;;;27.98;16.20;;;;;;;;;;5053705;28;20063;-78
2024/01/05 04:23:01;;;;;;;26.35;15.68;;;;;;;;;;5035592;28;20056;-78
2024/01/05 04:25:27;;;;;;;26.67;16.15;;;;;;;;;;5054221;28;20044;-78
2024/01/05 04:27:53;;;;;;;25.50;14.55;;;;;;;;;;5052293;28;20044;-78
2024/01/05 04:30:21;;;;;;;25.23;14.23;;;;;;;;;;5045133;28;20053;-78
2024/01/05 04:32:47;;;;;;;23.98;15.35;;;;;;;;;;5026715;28;20152;-78
2024/01/05 04:35:13;;;;;;;29.45;15.43;;;;;;;;;;5033866;28;20529;-78
2024/01/05 04:37:39;;;;;;;27.15;15.45;;;;;;;;;;5039855;28;20484;-78
2024/01/05 04:40:06;;;;;;;22.83;13.52;;;;;;;;;;5031240;28;20095;-78
2024/01/05 04:42:32;;;;;;;23.83;15.48;;;;;;;;;;5033642;28;20445;-78
2024/01/05 04:44:58;;;;;;;19.85;12.60;;;;;;;;;;5044201;28;20055;-78
2024/01/05 04:47:24;;;;;;;24.83;14.85;;;;;;;;;;5030664;28;20076;-78
2024/01/05 04:49:50;;;;;;;22.23;13.75;;;;;;;;;;5026022;28;20065;-78
2024/01/05 04:52:16;;;;;;;26.20;15.00;;;;;;;;;;5021522;28;20430;-78
2024/01/05 04:54:42;;;;;;;22.42;14.05;;;;;;;;;;5028958;28;20459;-78
2024/01/05 04:57:08;;;;;;;25.20;14.32;;;;;;;;;;5032513;28;20041;-78
2024/01/05 04:59:34;;;;;;;27.00;14.80;;;;;;;;;;5022162;28;20103;-77
2024/01/05 05:02:01;;;;;;;28.02;16.10;;;;;;;;;;5041158;28;20103;-78
2024/01/05 05:04:27;;;;;;;25.27;14.73;;;;;;;;;;5024615;28;20056;-78
2024/01/05 05:06:53;;;;;;;23.70;14.55;;;;;;;;;;5035579;28;20124;-78
2024/01/05 05:09:19;;;;;;;30.17;16.65;;;;;;;;;;5035841;28;20462;-78
2024/01/05 05:11:45;;;;;;;29.27;15.23;;;;;;;;;;5035108;28;20416;-78
2024/01/05 05:14:11;;;;;;;27.17;16.08;;;;;;;;;;5030686;28;20433;-78
2024/01/05 05:16:37;;;;;;;30.42;16.48;;;;;;;;;;5032921;28;20056;-78
2024/01/05 05:19:04;;;;;;;28.65;15.82;;;;;;;;;;5026532;28;20041;-78
2024/01/05 05:21:30;;;;;;;27.38;14.70;;;;;;;;;;5026964;28;20084;-78
2024/01/05 05:23:56;;;;;;;26.38;15.07;;;;;;;;;;5049665;28;20049;-78
2024/01/05 05:26:22;;;;;;;34.70;17.77;;;;;;;;;;5051680;28;20550;-78
2024/01/05 05:28:48;;;;;;;36.65;16.63;;;;;;;;;;5036893;28;20037;-78
2024/01/05 05:31:14;;;;;;;31.48;16.50;;;;;;;;;;5025578;28;20052;-78
2024/01/05 05:33:40;;;;;;;28.35;16.40;;;;;;;;;;5036970;28;20399;-78
2024/01/05 05:36:06;;;;;;;29.92;16.00;;;;;;;;;;5037795;28;20048;-78
2024/01/05 05:38:32;;;;;;;26.23;15.05;;;;;;;;;;5029333;28;20051;-77
2024/01/05 05:40:58;;;;;;;24.33;14.80;;;;;;;;;;5035102;28;20115;-78
2024/01/05 05:43:24;;;;;;;30.00;15.48;;;;;;;;;;5044768;28;20407;-78
2024/01/05 05:45:50;;;;;;;25.00;15.27;;;;;;;;;;5031145;28;20056;-78
2024/01/05 05:48:16;;;;;;;25.10;14.38;;;;;;;;;;5034373;28;20056;-78
2024/01/05 05:50:42;;;;;;;29.98;15.32;;;;;;;;;;5028320;28;20053;-78
2024/01/05 05:53:09;;;;;;;28.20;15.20;;;;;;;;;;5041095;28;20093;-78
2024/01/05 05:55:36;;;;;;;26.85;15.75;;;;;;;;;;5027947;28;20128;-78
2024/01/05 05:58:02;;;;;;;29.40;16.00;;;;;;;;;;5025695;28;20068;-78
2024/01/05 06:00:28;;;;;;;24.20;13.75;;;;;;;;;;5035255;28;20068;-78
2024/01/05 06:02:54;;;;;;;26.38;15.27;;;;;;;;;;5039679;28;20048;-78
2024/01/05 06:05:20;;;;;;;24.63;15.38;;;;;;;;;;5042778;28;20040;-78
2024/01/05 06:07:46;;;;;;;26.88;15.75;;;;;;;;;;5033803;28;20047;-78
2024/01/05 06:10:12;;;;;;;25.23;14.20;;;;;;;;;;5050617;28;20463;-78
2024/01/05 06:12:38;;;;;;;26.95;13.85;;;;;;;;;;5037629;28;20095;-78
2024/01/05 06:15:05;;;;;;;29.23;17.60;;;;;;;;;;5019675;28;20056;-78
2024/01/05 06:17:31;;;;;;;24.40;14.63;;;;;;;;;;5049485;28;20044;-78
2024/01/05 06:19:57;;;;;;;29.83;16.83;;;;;;;;;;5029267;28;20044;-78
2024/01/05 06:22:23;;;;;;;26.83;16.05;;;;;;;;;;5029780;28;20054;-78
2024/01/05 06:24:49;;;;;;;27.92;14.98;;;;;;;;;;5023961;28;20063;-78
2024/01/05 06:27:15;;;;;;;24.75;15.18;;;;;;;;;;5031603;28;20045;-78
2024/01/05 06:29:41;;;;;;;26.77;14.20;;;;;;;;;;5026524;28;20040;-77
2024/01/05 06:32:07;;;;;;;24.52;13.98;;;;;;;;;;5023523;28;20476;-78
2024/01/05 06:34:33;;;;;;;29.85;15.88;;;;;;;;;;5031628;28;20429;-77
2024/01/05 06:36:59;;;;;;;24.45;14.45;;;;;;;;;;5028911;28;20044;-77
2024/01/05 06:39:25;;;;;;;24.48;14.80;;;;;;;;;;5029242;28;20056;-78
2024/01/05 06:41:51;;;;;;;25.45;14.68;;;;;;;;;;5032538;28;20045;-77
2024/01/05 06:44:17;;;;;;;28.70;15.52;;;;;;;;;;5031954;28;20053;-77
2024/01/05 06:46:43;;;;;;;29.08;15.55;;;;;;;;;;5022496;28;20140;-77
2024/01/05 06:49:09;;;;;;;26.23;15.32;;;;;;;;;;5028713;28;20075;-77
2024/01/05 06:51:39;;;;;;;29.48;15.85;;;;;;;;;;5043043;28;20041;-77
2024/01/05 06:54:05;;;;;;;29.15;15.13;;;;;;;;;;5042461;28;20049;-77
2024/01/05 06:56:34;;;;;;;27.05;14.90;;;;;;;;;;5049767;28;20060;-77
2024/01/05 06:59:04;;;;;;;26.25;15.65;;;;;;;;;;5043145;28;20052;-77
2024/01/05 07:01:31;;;;;;;28.42;16.23;;;;;;;;;;5033950;28;20121;-76
2024/01/05 07:03:57;;;;;;;25.30;15.23;;;;;;;;;;5042767;28;20041;-76
2024/01/05 07:06:23;;;;;;;26.38;15.98;;;;;;;;;;5034181;28;20081;-76
2024/01/05 07:08:49;;;;;;;27.77;14.90;;;;;;;;;;5039747;28;20503;-77
2024/01/05 07:11:22;;;;;;;27.00;15.40;;;;;;;;;;5054709;28;20041;-77
2024/01/05 07:13:48;;;;;;;24.63;14.95;;;;;;;;;;5038963;28;20045;-77
2024/01/05 07:16:15;;;;;;;23.60;14.55;;;;;;;;;;5035896;28;20049;-77
2024/01/05 07:18:41;;;;;;;24.50;14.65;;;;;;;;;;5042775;28;20480;-77
2024/01/05 07:21:07;;;;;;;23.50;14.38;;;;;;;;;;5038685;28;20054;-77
2024/01/05 07:23:33;;;;;;;25.67;15.38;;;;;;;;;;5038037;28;20049;-77
2024/01/05 07:26:00;;;;;;;27.33;16.85;;;;;;;;;;5039003;28;20052;-77
2024/01/05 07:28:26;;;;;;;25.50;15.43;;;;;;;;;;5053110;28;20044;-77
2024/01/05 07:30:52;;;;;;;31.17;16.95;;;;;;;;;;5041853;28;20098;-77
2024/01/05 07:33:18;;;;;;;30.00;16.80;;;;;;;;;;5050772;28;20069;-77
2024/01/05 07:35:44;;;;;;;26.63;15.93;;;;;;;;;;5054187;28;20126;-76
2024/01/05 07:38:10;;;;;;;31.48;16.83;;;;;;;;;;5033583;28;20042;-76
2024/01/05 07:40:36;;;;;;;29.42;17.25;;;;;;;;;;5030814;28;20053;-77
2024/01/05 07:43:05;;;;;;;33.15;19.00;;;;;;;;;;5042352;28;20043;-77
2024/01/05 07:45:31;;;;;;;33.35;17.48;;;;;;;;;;5035362;28;20049;-77
2024/01/05 07:47:58;;;;;;;33.67;18.67;;;;;;;;;;5038174;28;20047;-77
2024/01/05 07:50:24;;;;;;;31.63;17.95;;;;;;;;;;5031197;28;20120;-77
2024/01/05 07:52:51;;;;;;;33.38;18.23;;;;;;;;;;5063584;28;20052;-77
2024/01/05 07:55:17;;;;;;;35.83;19.02;;;;;;;;;;5043211;28;20111;-77
2024/01/05 07:57:43;;;;;;;31.38;17.40;;;;;;;;;;5058568;28;20492;-77
2024/01/05 08:00:10;;;;;;;36.17;19.52;;;;;;;;;;5040669;28;20397;-77
2024/01/05 08:02:36;;;;;;;33.03;18.00;;;;;;;;;;5033603;28;20049;-77
2024/01/05 08:05:02;;;;;;;32.67;17.73;;;;;;;;;;5031371;28;20099;-77
2024/01/05 08:07:31;;;;;;;33.15;19.17;;;;;;;;;;5035820;28;20045;-77
2024/01/05 08:09:58;;;;;;;35.95;19.17;;;;;;;;;;5037463;28;20049;-77
2024/01/05 08:12:24;;;;;;;31.63;17.90;;;;;;;;;;5028917;28;20091;-77
2024/01/05 08:14:51;;;;;;;32.15;17.10;;;;;;;;;;5040597;28;20464;-77
2024/01/05 08:17:20;;;;;;;33.05;18.52;;;;;;;;;;5029059;28;20520;-77
2024/01/05 08:19:46;;;;;;;32.70;18.63;;;;;;;;;;5032079;28;20052;-77
2024/01/05 08:22:12;;;;;;;31.00;18.38;;;;;;;;;;5032367;28;20053;-77
2024/01/05 08:24:38;;;;;;;31.25;17.30;;;;;;;;;;5035299;28;20674;-76
2024/01/05 08:27:04;;;;;;;35.97;20.02;;;;;;;;;;5035216;28;20045;-77
2024/01/05 08:29:30;;;;;;;34.90;19.60;;;;;;;;;;5027361;28;20175;-76
2024/01/05 08:31:58;;;;;;;36.75;19.17;;;;;;;;;;5010061;28;20126;-76
2024/01/05 08:34:24;;;;;;;31.20;17.75;;;;;;;;;;5018128;28;20503;-75
2024/01/05 08:36:50;;;;;;;31.55;18.77;;;;;;;;;;5012655;28;20072;-76
2024/01/05 08:39:16;;;;;;;33.28;18.48;;;;;;;;;;5014300;28;20087;-76
2024/01/05 08:41:43;;;;;;;34.75;19.15;;;;;;;;;;5022832;28;20048;-77
2024/01/05 08:44:08;;;;;;;36.28;19.80;;;;;;;;;;5009514;28;20547;-76
2024/01/05 08:46:34;;;;;;;37.15;19.58;;;;;;;;;;5002406;28;20128;-76
2024/01/05 08:49:00;;;;;;;35.35;19.25;;;;;;;;;;5034107;28;20129;-77
2024/01/05 08:51:27;;;;;;;36.35;20.95;;;;;;;;;;5025477;28;20085;-76
2024/01/05 08:53:53;;;;;;;37.00;19.90;;;;;;;;;;5028363;28;20044;-76
2024/01/05 08:56:19;;;;;;;40.05;22.42;;;;;;;;;;5029151;28;20493;-76
2024/01/05 08:58:45;;;;;;;36.88;18.65;;;;;;;;;;5026131;28;20060;-77
2024/01/05 09:01:11;;;;;;;38.42;19.13;;;;;;;;;;5029491;28;20029;-77
2024/01/05 09:03:37;;;;;;;32.15;17.92;;;;;;;;;;5014209;28;20818;-76
2024/01/05 09:06:03;;;;;;;35.33;18.10;;;;;;;;;;5011335;28;20560;-76
2024/01/05 09:08:29;;;;;;;38.15;19.80;;;;;;;;;;5003996;28;20063;-76
2024/01/05 09:10:55;;;;;;;33.35;17.88;;;;;;;;;;5028404;28;20788;-76
2024/01/05 09:13:22;;;;;;;34.97;19.90;;;;;;;;;;5029239;28;20136;-76
2024/01/05 09:15:48;;;;;;;32.80;19.88;;;;;;;;;;5018314;28;20045;-76
2024/01/05 09:18:14;;;;;;;30.90;17.70;;;;;;;;;;5012016;28;20383;-76
2024/01/05 09:20:40;;;;;;;33.38;19.63;;;;;;;;;;5018292;28;20119;-76
2024/01/05 09:23:06;;;;;;;34.83;19.92;;;;;;;;;;5034269;28;20079;-76
2024/01/05 09:25:32;;;;;;;30.58;18.75;;;;;;;;;;5024766;28;20045;-76
2024/01/05 09:28:03;;;;;;;31.33;18.33;;;;;;;;;;5040448;28;20099;-76
2024/01/05 09:30:29;;;;;;;35.83;18.13;;;;;;;;;;5022678;28;20053;-76
2024/01/05 09:32:57;;;;;;;39.38;18.65;;;;;;;;;;5024854;28;20037;-76
2024/01/05 09:35:24;;;;;;;34.08;18.70;;;;;;;;;;5043600;28;20136;-76
2024/01/05 09:37:50;;;;;;;35.20;18.17;;;;;;;;;;5042220;28;20554;-76
2024/01/05 09:40:16;;;;;;;32.47;17.52;;;;;;;;;;5018615;28;20036;-76
2024/01/05 09:42:49;;;;;;;32.22;17.27;;;;;;;;;;5020155;28;20048;-76
2024/01/05 09:45:15;;;;;;;33.80;18.23;;;;;;;;;;5021356;28;20079;-76
2024/01/05 09:47:42;;;;;;;30.00;17.58;;;;;;;;;;5020901;28;20040;-75
2024/01/05 09:50:09;;;;;;;28.63;16.67;;;;;;;;;;5017839;28;20052;-76
2024/01/05 09:52:36;;;;;;;32.28;17.42;;;;;;;;;;5041512;28;20041;-76
2024/01/05 09:55:02;;;;;;;34.55;18.35;;;;;;;;;;5021539;28;20049;-76
2024/01/05 09:57:28;;;;;;;32.08;16.52;;;;;;;;;;5022943;28;20083;-76
2024/01/05 09:59:55;;;;;;;31.48;17.27;;;;;;;;;;5039447;28;20041;-75
2024/01/05 10:02:32;;;;;;;29.70;16.23;;;;;;;;;;5023687;28;20440;-76
2024/01/05 10:04:58;;;;;;;28.55;16.58;;;;;;;;;;5023432;28;20053;-76
2024/01/05 10:07:24;;;;;;;32.65;17.33;;;;;;;;;;5025064;28;20037;-76
2024/01/05 10:09:51;;;;;;;28.95;17.27;;;;;;;;;;5021311;28;20484;-76
2024/01/05 10:12:18;;;;;;;27.38;16.92;;;;;;;;;;5024343;28;20114;-76
2024/01/05 10:14:46;;;;;;;30.80;16.73;;;;;;;;;;5025082;28;20056;-76
2024/01/05 10:17:12;;;;;;;29.63;15.32;;;;;;;;;;5026779;28;20060;-76
2024/01/05 10:19:41;;;;;;;30.67;16.58;;;;;;;;;;5027915;28;20055;-76
2024/01/05 10:22:11;;;;;;;28.33;16.63;;;;;;;;;;5014430;28;20497;-76
2024/01/05 10:24:37;;;;;;;28.13;16.30;;;;;;;;;;5006652;28;20041;-76
2024/01/05 10:27:13;;;;;;;27.45;15.57;;;;;;;;;;5008772;28;20047;-76
2024/01/05 10:29:42;;;;;;;32.05;16.77;;;;;;;;;;5008161;28;20354;-76
2024/01/05 10:32:18;;;;;;;29.27;14.70;;;;;;;;;;5024418;28;20038;-77
2024/01/05 10:34:45;;;;;;;25.88;15.55;;;;;;;;;;5006911;28;20045;-76
2024/01/05 10:37:13;;;;;;;25.88;14.68;;;;;;;;;;5006106;28;20477;-76
2024/01/05 10:39:39;;;;;;;27.90;16.13;;;;;;;;;;5006122;28;20296;-76
2024/01/05 10:42:26;;;;;;;27.42;16.23;;;;;;;;;;5022432;28;20094;-77
2024/01/05 10:44:53;;;;;;;23.50;14.35;;;;;;;;;;5007587;28;20492;-76
2024/01/05 10:47:20;;;;;;;27.00;16.17;;;;;;;;;;5007512;28;20580;-76
2024/01/05 10:49:50;;;;;;;27.23;16.15;;;;;;;;;;5006330;28;20107;-76
2024/01/05 10:52:20;;;;;;;26.08;15.32;;;;;;;;;;5007188;28;20049;-76
2024/01/05 10:54:47;;;;;;;26.27;14.93;;;;;;;;;;5006687;28;20053;-76
2024/01/05 10:57:16;;;;;;;25.08;15.15;;;;;;;;;;5005333;28;20041;-76
2024/01/05 10:59:43;;;;;;;24.50;15.55;;;;;;;;;;5006336;28;20057;-76
2024/01/05 11:02:13;;;;;;;26.13;15.77;;;;;;;;;;5004539;28;20044;-76
2024/01/05 11:04:42;;;;;;;29.40;17.05;;;;;;;;;;5019493;28;20125;-76
2024/01/05 11:07:09;;;;;;;29.65;16.58;;;;;;;;;;5007033;28;20132;-76
2024/01/05 11:09:54;;;;;;;27.40;16.05;;;;;;;;;;5004375;28;20053;-76
2024/01/05 11:12:23;;;;;;;29.55;15.75;;;;;;;;;;5008930;28;20048;-76
2024/01/05 11:14:52;;;;;;;28.63;16.63;;;;;;;;;;5025967;28;20103;-76
2024/01/05 11:17:21;;;;;;;30.20;16.10;;;;;;;;;;5021605;28;20049;-76
2024/01/05 11:20:04;;;;;;;29.00;16.95;;;;;;;;;;5026960;28;20038;-76
2024/01/05 11:22:35;;;;;;;26.27;14.75;;;;;;;;;;5028838;28;20053;-76
2024/01/05 11:25:02;;;;;;;25.90;15.43;;;;;;;;;;5025528;28;20052;-76
2024/01/05 11:27:29;;;;;;;23.70;14.80;;;;;;;;;;5026457;28;20394;-76
2024/01/05 11:29:56;;;;;;;24.02;14.95;;;;;;;;;;5028850;28;20447;-76
2024/01/05 11:32:46;;;;;;;24.20;14.98;;;;;;;;;;5025118;28;20100;-76
2024/01/05 11:35:19;;;;;;;28.63;14.63;;;;;;;;;;5026673;28;20052;-77
2024/01/05 11:37:48;;;;;;;23.00;13.98;;;;;;;;;;5026489;28;20049;-77
2024/01/05 11:40:31;;;;;;;24.63;14.80;;;;;;;;;;5027241;28;20041;-77
2024/01/05 11:42:57;;;;;;;21.77;12.63;;;;;;;;;;5043405;28;20048;-77
2024/01/05 11:45:42;;;;;;;20.38;13.20;;;;;;;;;;5035666;28;20083;-77
2024/01/05 11:48:08;;;;;;;22.73;14.18;;;;;;;;;;5032731;28;20048;-77
2024/01/05 11:50:38;;;;;;;21.75;13.65;;;;;;;;;;5027249;28;20051;-77
2024/01/05 11:53:18;;;;;;;22.10;13.00;;;;;;;;;;5032463;28;20056;-77
2024/01/05 11:56:21;;;;;;;20.48;13.23;;;;;;;;;;5031639;28;20120;-77
2024/01/05 11:58:47;;;;;;;19.67;13.15;;;;;;;;;;5006982;28;20050;-76
2024/01/05 12:01:15;;;;;;;25.60;17.10;;;;;;;;;;5028272;28;20072;-77
2024/01/05 12:03:41;;;;;;;23.75;14.25;;;;;;;;;;5047353;28;20071;-77
2024/01/05 12:06:11;;;;;;;19.33;12.95;;;;;;;;;;5030270;28;20060;-77
2024/01/05 12:08:38;;;;;;;20.33;13.43;;;;;;;;;;5028218;28;20439;-77
2024/01/05 12:11:05;;;;;;;22.63;13.88;;;;;;;;;;5027385;28;20048;-77
2024/01/05 12:13:33;;;;;;;19.10;12.48;;;;;;;;;;5034094;28;20049;-76
2024/01/05 12:16:00;;;;;;;20.45;12.60;;;;;;;;;;5023846;28;20392;-76
2024/01/05 12:18:26;;;;;;;20.83;12.98;;;;;;;;;;5022973;28;20049;-76
2024/01/05 12:21:02;;;;;;;16.95;11.63;;;;;;;;;;5036559;28;20049;-76
2024/01/05 12:23:29;;;;;;;20.60;13.13;;;;;;;;;;5042998;28;20417;-78
2024/01/05 12:26:03;;;;;;;18.70;11.88;;;;;;;;;;5026107;28;20099;-76
2024/01/05 12:28:30;;;;;;;19.40;12.35;;;;;;;;;;5023681;28;20049;-77
2024/01/05 12:30:57;;;;;;;20.30;12.02;;;;;;;;;;5025122;28;20447;-77
2024/01/05 12:33:23;;;;;;;18.60;12.50;;;;;;;;;;5024392;28;20045;-77
2024/01/05 12:35:52;;;;;;;20.58;13.13;;;;;;;;;;5021566;28;20528;-77
2024/01/05 12:38:21;;;;;;;20.60;13.70;;;;;;;;;;5027636;28;20084;-77
2024/01/05 12:40:48;;;;;;;20.70;13.23;;;;;;;;;;5021023;28;20037;-80
2024/01/05 12:43:16;;;;;;;20.83;13.25;;;;;;;;;;5028660;28;20402;-84
2024/01/05 12:45:42;;;;;;;20.10;13.05;;;;;;;;;;5024937;28;20386;-83
2024/01/05 13:06:16;;;;;;;26.73;15.70;;;;;;;;;;5097923;27;20803;-78
2024/01/05 13:08:42;;;;;;;21.88;13.68;;;;;;;;;;5083837;28;20052;-79
2024/01/05 13:11:08;;;;;;;21.00;13.75;;;;;;;;;;5089120;28;20113;-80
2024/01/05 13:13:34;;;;;;;22.50;14.43;;;;;;;;;;5085666;28;20051;-81
2024/01/05 13:16:01;;;;;;;22.52;13.88;;;;;;;;;;5088209;28;20040;-81
2024/01/05 13:18:28;;;;;;;22.10;14.02;;;;;;;;;;5084809;28;20048;-82
2024/01/05 13:20:54;;;;;;;21.63;13.77;;;;;;;;;;5085649;28;20052;-83
2024/01/05 13:23:20;;;;;;;23.23;14.30;;;;;;;;;;5085779;28;20472;-81
2024/01/05 13:25:47;;;;;;;22.10;13.75;;;;;;;;;;5083617;28;20072;-80
2024/01/05 13:28:13;;;;;;;23.30;14.00;;;;;;;;;;5087066;28;20052;-81
2024/01/05 13:30:40;;;;;;;22.42;14.55;;;;;;;;;;5085993;28;20053;-81
2024/01/05 13:33:06;;;;;;;20.73;13.60;;;;;;;;;;5087604;28;20051;-81
2024/01/05 13:35:32;;;;;;;22.80;13.45;;;;;;;;;;5086512;28;20044;-81
2024/01/05 13:37:58;;;;;;;21.75;14.82;;;;;;;;;;5085765;28;20101;-80
2024/01/05 13:40:24;;;;;;;20.27;13.48;;;;;;;;;;5086525;28;20040;-80
2024/01/05 13:42:50;;;;;;;23.80;14.23;;;;;;;;;;5088278;28;20381;-80
2024/01/05 13:45:16;;;;;;;21.17;13.20;;;;;;;;;;5086106;28;20067;-80
2024/01/05 13:47:43;;;;;;;20.15;13.38;;;;;;;;;;5084409;28;20044;-80
2024/01/05 13:50:10;;;;;;;20.85;13.48;;;;;;;;;;5086447;28;20048;-81
2024/01/05 13:52:36;;;;;;;21.20;13.73;;;;;;;;;;5084818;28;20079;-81
2024/01/05 13:55:02;;;;;;;23.02;14.07;;;;;;;;;;5087336;28;20427;-79
2024/01/05 13:57:28;;;;;;;21.25;14.55;;;;;;;;;;5084683;28;20180;-79
2024/01/05 13:59:54;;;;;;;22.17;14.57;;;;;;;;;;5090677;28;20496;-79
2024/01/05 14:02:20;;;;;;;20.13;13.52;;;;;;;;;;5087527;28;20059;-80
2024/01/05 14:04:49;;;;;;;22.73;14.73;;;;;;;;;;5086128;28;20091;-80
2024/01/05 14:07:15;;;;;;;23.20;14.57;;;;;;;;;;5082882;28;20076;-80
2024/01/05 14:09:42;;;;;;;24.88;14.40;;;;;;;;;;5086145;28;20109;-80
2024/01/05 14:12:08;;;;;;;26.48;15.27;;;;;;;;;;5092462;28;20062;-78
2024/01/05 14:14:35;;;;;;;25.55;15.65;;;;;;;;;;5106638;28;20151;-80
2024/01/05 14:17:02;;;;;;;23.48;13.98;;;;;;;;;;5081230;28;20045;-79
2024/01/05 14:19:28;;;;;;;25.05;14.77;;;;;;;;;;5079640;28;20229;-80
2024/01/05 14:21:54;;;;;;;21.98;15.05;;;;;;;;;;5070937;28;20131;-80
2024/01/05 14:24:20;;;;;;;22.27;14.73;;;;;;;;;;5070080;28;20400;-79
2024/01/05 14:26:47;;;;;;;24.35;15.63;;;;;;;;;;5069851;28;20044;-80
2024/01/05 14:29:15;;;;;;;23.83;15.10;;;;;;;;;;5070045;28;21451;-80
2024/01/05 14:31:41;;;;;;;57.55;35.10;;;;;;;;;;5074688;28;20542;-80
2024/01/05 14:34:07;;;;;;;24.55;16.48;;;;;;;;;;5078354;28;20842;-82